Time;durP1;ratioP1;P1;durP2;ratioP2;P2;SDS_P1;SDS_P2;PMS_P1;PMS_P2;Temp;Humidity;BMP_temperature;BMP_pressure;BME280_temperature;BME280_humidity;BME280_pressure;Samples;Min_cycle;Max_cycle;Signal;HPM_P1;HPM_P2
2022/03/26 00:00:12;;;;;;;108.38;65.38;;;7.20;99.90;;;;;;5061960;28;20280;-83
2022/03/26 00:02:37;;;;;;;106.10;62.40;;;7.20;99.90;;;;;;5038246;28;20041;-82
2022/03/26 00:05:03;;;;;;;101.15;62.50;;;7.10;99.90;;;;;;5041042;28;20051;-84
2022/03/26 00:07:29;;;;;;;104.07;63.38;;;7.10;99.90;;;;;;5059656;28;20097;-82
2022/03/26 00:09:55;;;;;;;97.30;60.38;;;7.10;99.90;;;;;;5066849;28;20471;-83
2022/03/26 00:12:20;;;;;;;101.43;61.22;;;7.10;99.90;;;;;;5047657;28;21523;-82
2022/03/26 00:14:46;;;;;;;101.15;59.60;;;7.00;99.90;;;;;;5056168;28;20046;-82
2022/03/26 00:17:12;;;;;;;106.63;63.15;;;7.00;99.90;;;;;;5065079;28;20675;-83
2022/03/26 00:19:38;;;;;;;95.97;58.03;;;6.90;99.90;;;;;;5048091;28;20074;-83
2022/03/26 00:22:03;;;;;;;99.65;58.90;;;6.90;99.90;;;;;;5062165;28;20316;-82
2022/03/26 00:24:29;;;;;;;101.70;61.97;;;6.80;99.90;;;;;;5061589;28;20072;-83
2022/03/26 00:26:55;;;;;;;109.00;62.70;;;6.80;99.90;;;;;;5062746;28;20036;-82
2022/03/26 00:29:21;;;;;;;106.63;63.65;;;6.70;99.90;;;;;;5066191;28;20040;-84
2022/03/26 00:31:46;;;;;;;112.30;65.03;;;6.70;99.90;;;;;;5065904;28;20044;-83
2022/03/26 00:34:12;;;;;;;106.88;64.43;;;6.80;99.90;;;;;;5063520;28;20419;-82
2022/03/26 00:36:38;;;;;;;111.82;64.55;;;6.70;99.90;;;;;;5057142;28;20067;-83
2022/03/26 00:39:04;;;;;;;109.93;66.43;;;6.80;99.90;;;;;;5062172;28;20075;-84
2022/03/26 00:41:30;;;;;;;110.18;65.15;;;6.80;99.90;;;;;;5061283;28;20233;-83
2022/03/26 00:43:56;;;;;;;114.00;66.50;;;6.80;99.90;;;;;;5040720;28;20048;-84
2022/03/26 00:46:23;;;;;;;110.55;65.57;;;6.70;99.90;;;;;;5040858;28;20502;-84
2022/03/26 00:48:48;;;;;;;115.72;69.00;;;6.70;99.90;;;;;;5041224;28;20055;-84
2022/03/26 00:51:15;;;;;;;115.72;67.95;;;6.60;99.90;;;;;;5063589;28;20041;-83
2022/03/26 00:53:45;;;;;;;111.90;66.47;;;6.60;99.90;;;;;;5064190;28;20480;-83
2022/03/26 00:56:12;;;;;;;115.28;70.90;;;6.60;99.90;;;;;;5038926;28;20040;-84
2022/03/26 00:58:39;;;;;;;120.97;72.63;;;6.50;99.90;;;;;;5061916;28;20095;-82
2022/03/26 01:01:04;;;;;;;118.57;69.75;;;6.50;99.90;;;;;;5063439;28;20238;-84
2022/03/26 01:03:30;;;;;;;109.53;66.43;;;6.50;99.90;;;;;;5062170;28;20151;-83
2022/03/26 01:05:56;;;;;;;103.97;63.97;;;6.50;99.90;;;;;;5060038;28;20476;-84
2022/03/26 01:08:22;;;;;;;109.30;66.25;;;8.00;99.90;;;;;;5066494;28;20128;-82
2022/03/26 01:10:47;;;;;;;105.97;63.13;;;6.50;99.90;;;;;;5061703;28;20128;-83
2022/03/26 01:13:14;;;;;;;106.43;64.80;;;6.50;99.90;;;;;;5060156;28;20052;-83
2022/03/26 01:15:40;;;;;;;110.47;66.05;;;6.50;99.90;;;;;;5051173;28;20051;-83
2022/03/26 01:18:06;;;;;;;114.10;65.93;;;6.40;99.90;;;;;;5060819;28;20051;-82
2022/03/26 01:20:32;;;;;;;106.65;66.18;;;6.40;99.90;;;;;;5061753;28;20408;-83
2022/03/26 01:22:58;;;;;;;102.63;63.83;;;6.30;99.90;;;;;;5092723;28;20060;-83
2022/03/26 01:25:24;;;;;;;103.93;65.80;;;6.40;99.90;;;;;;5062722;28;20052;-84
2022/03/26 01:27:50;;;;;;;104.70;62.72;;;6.30;99.90;;;;;;5048355;28;20408;-83
2022/03/26 01:30:16;;;;;;;100.90;60.72;;;6.30;99.90;;;;;;5061050;28;20041;-83
2022/03/26 01:32:43;;;;;;;103.63;61.83;;;6.30;99.90;;;;;;5060846;28;20435;-83
2022/03/26 01:35:10;;;;;;;97.78;60.33;;;6.30;99.90;;;;;;5059606;28;20492;-83
2022/03/26 01:37:35;;;;;;;102.03;61.38;;;6.30;99.90;;;;;;5067374;28;20122;-83
2022/03/26 01:40:02;;;;;;;101.68;61.70;;;6.20;99.90;;;;;;5039172;28;20333;-83
2022/03/26 01:42:27;;;;;;;103.38;62.10;;;6.20;99.90;;;;;;5052785;28;20310;-83
2022/03/26 01:44:53;;;;;;;105.60;62.17;;;6.10;99.90;;;;;;5052667;28;20496;-83
2022/03/26 01:47:18;;;;;;;106.60;62.50;;;6.10;99.90;;;;;;5063350;28;20094;-84
2022/03/26 01:49:44;;;;;;;104.22;63.03;;;6.10;99.90;;;;;;5057960;28;20044;-83
2022/03/26 01:52:10;;;;;;;106.18;62.40;;;6.10;99.90;;;;;;5060672;28;20061;-84
2022/03/26 01:54:38;;;;;;;107.75;64.75;;;6.00;99.90;;;;;;5061755;28;20063;-83
2022/03/26 01:57:04;;;;;;;99.13;61.28;;;6.00;99.90;;;;;;5060918;28;20446;-83
2022/03/26 01:59:30;;;;;;;110.05;64.10;;;6.00;99.90;;;;;;5057136;28;20493;-84
2022/03/26 02:01:55;;;;;;;103.68;61.55;;;6.00;99.90;;;;;;5061588;28;20511;-83
2022/03/26 02:04:21;;;;;;;92.55;56.78;;;6.00;99.90;;;;;;5059436;28;20037;-84
2022/03/26 02:06:47;;;;;;;96.32;56.22;;;6.00;99.90;;;;;;5062803;28;20259;-83
2022/03/26 02:09:15;;;;;;;91.53;56.30;;;6.00;99.90;;;;;;5066164;28;20040;-82
2022/03/26 02:11:43;;;;;;;95.78;56.05;;;6.00;99.90;;;;;;5070624;28;20222;-83
2022/03/26 02:14:10;;;;;;;94.15;56.05;;;6.00;99.90;;;;;;5066818;28;20484;-83
2022/03/26 02:16:38;;;;;;;88.90;54.45;;;6.00;99.90;;;;;;5046683;28;20056;-83
2022/03/26 02:19:06;;;;;;;99.63;57.97;;;6.00;99.90;;;;;;5069013;28;20040;-83
2022/03/26 02:21:34;;;;;;;98.15;59.85;;;5.90;99.90;;;;;;5048680;28;20131;-82
2022/03/26 02:24:02;;;;;;;102.97;60.67;;;7.10;99.90;;;;;;5068444;28;20516;-82
2022/03/26 02:26:28;;;;;;;101.95;60.95;;;5.90;99.90;;;;;;5050861;28;20680;-82
2022/03/26 02:28:56;;;;;;;103.22;62.45;;;4.90;99.90;;;;;;5077801;28;20514;-82
2022/03/26 02:31:22;;;;;;;106.20;62.22;;;5.50;99.90;;;;;;5051725;28;20052;-83
2022/03/26 02:33:49;;;;;;;104.85;63.13;;;5.80;99.90;;;;;;5046178;28;20071;-84
2022/03/26 02:36:15;;;;;;;112.85;65.75;;;6.30;99.90;;;;;;5056745;28;20053;-84
2022/03/26 02:38:41;;;;;;;112.63;63.72;;;5.80;99.90;;;;;;5068590;28;20162;-84
2022/03/26 02:41:07;;;;;;;112.57;63.70;;;5.80;99.90;;;;;;5045920;28;20067;-82
2022/03/26 02:43:34;;;;;;;111.70;65.93;;;5.80;99.90;;;;;;5060235;28;20032;-84
2022/03/26 02:46:00;;;;;;;109.30;65.13;;;5.70;99.90;;;;;;5054864;28;20037;-82
2022/03/26 02:48:26;;;;;;;119.95;67.63;;;5.70;99.90;;;;;;5040531;28;20063;-83
2022/03/26 02:50:51;;;;;;;114.55;66.72;;;5.70;99.90;;;;;;5059753;28;20500;-83
2022/03/26 02:53:17;;;;;;;119.03;68.13;;;5.50;99.90;;;;;;5061087;28;20082;-83
2022/03/26 02:55:43;;;;;;;125.38;72.00;;;5.50;99.90;;;;;;5064310;28;20052;-83
2022/03/26 02:58:09;;;;;;;128.65;73.95;;;5.40;99.90;;;;;;5064012;28;20070;-82
2022/03/26 03:00:36;;;;;;;123.85;71.82;;;5.40;99.90;;;;;;5062320;28;20045;-82
2022/03/26 03:03:02;;;;;;;120.20;70.60;;;5.40;99.90;;;;;;5058936;28;20033;-84
2022/03/26 03:05:28;;;;;;;126.03;75.05;;;5.30;99.90;;;;;;5063790;28;20186;-83
2022/03/26 03:07:53;;;;;;;124.88;72.63;;;5.30;99.90;;;;;;5064793;28;20059;-83
2022/03/26 03:10:20;;;;;;;132.90;75.68;;;5.30;99.90;;;;;;5067364;28;20059;-83
2022/03/26 03:12:47;;;;;;;132.18;75.97;;;5.20;99.90;;;;;;5065554;28;20044;-82
2022/03/26 03:15:13;;;;;;;136.48;75.35;;;5.20;99.90;;;;;;5063854;28;20157;-82
2022/03/26 03:17:40;;;;;;;135.18;75.32;;;5.10;99.90;;;;;;5050507;28;20263;-82
2022/03/26 03:20:08;;;;;;;135.80;78.07;;;5.20;99.90;;;;;;5061233;28;20069;-83
2022/03/26 03:22:34;;;;;;;144.48;81.63;;;5.20;99.90;;;;;;5061649;28;20043;-82
2022/03/26 03:25:00;;;;;;;138.88;76.78;;;5.20;99.90;;;;;;5043181;28;20033;-82
2022/03/26 03:27:26;;;;;;;137.32;79.20;;;5.20;99.90;;;;;;5045690;28;20102;-82
2022/03/26 03:29:52;;;;;;;140.38;79.25;;;5.40;99.90;;;;;;5059576;28;20555;-82
2022/03/26 03:32:17;;;;;;;141.10;78.57;;;5.20;99.90;;;;;;5064546;28;20127;-83
2022/03/26 03:34:43;;;;;;;135.55;80.18;;;5.30;99.90;;;;;;5062614;28;20123;-82
2022/03/26 03:37:09;;;;;;;138.90;78.03;;;5.30;99.90;;;;;;5061824;28;20048;-82
2022/03/26 03:39:35;;;;;;;134.75;77.78;;;5.40;99.90;;;;;;5059611;28;20403;-82
2022/03/26 03:42:00;;;;;;;134.15;76.35;;;3.80;99.90;;;;;;5056755;28;20040;-83
2022/03/26 03:44:26;;;;;;;135.77;76.47;;;5.30;99.90;;;;;;5064328;28;20102;-82
2022/03/26 03:46:52;;;;;;;127.70;74.03;;;5.30;99.90;;;;;;5056879;28;20055;-83
2022/03/26 03:49:19;;;;;;;136.68;75.07;;;5.30;99.90;;;;;;5055076;28;20476;-83
2022/03/26 03:51:44;;;;;;;128.35;74.93;;;5.30;99.90;;;;;;5059301;28;20094;-83
2022/03/26 03:54:10;;;;;;;122.80;72.90;;;5.20;99.90;;;;;;5049094;28;20036;-83
2022/03/26 03:56:39;;;;;;;129.48;74.45;;;5.20;99.90;;;;;;5041002;28;20044;-83
2022/03/26 03:59:04;;;;;;;136.45;77.82;;;5.20;99.90;;;;;;5050553;28;20052;-83
2022/03/26 04:01:30;;;;;;;138.38;77.70;;;5.10;99.90;;;;;;5064790;28;20028;-83
2022/03/26 04:03:55;;;;;;;139.75;78.47;;;5.10;99.90;;;;;;5062148;28;20485;-82
2022/03/26 04:06:21;;;;;;;146.25;77.47;;;5.00;99.90;;;;;;5066238;28;20079;-83
2022/03/26 04:08:47;;;;;;;131.80;75.72;;;5.00;99.90;;;;;;5063395;28;20048;-82
2022/03/26 04:11:12;;;;;;;138.75;78.15;;;5.00;99.90;;;;;;5061733;28;20082;-83
2022/03/26 04:13:38;;;;;;;136.18;79.75;;;5.10;99.90;;;;;;5061771;28;20040;-83
2022/03/26 04:16:04;;;;;;;138.40;78.85;;;5.10;99.90;;;;;;5057308;28;20048;-83
2022/03/26 04:18:30;;;;;;;142.82;83.53;;;5.10;99.90;;;;;;5060300;28;20044;-83
2022/03/26 04:20:56;;;;;;;142.75;81.90;;;5.10;99.90;;;;;;5065835;28;20047;-84
2022/03/26 04:23:23;;;;;;;154.45;83.95;;;5.10;99.90;;;;;;5052856;28;20397;-83
2022/03/26 04:25:49;;;;;;;146.88;83.70;;;5.10;99.90;;;;;;5057590;28;20049;-83
2022/03/26 04:28:14;;;;;;;143.10;82.78;;;5.10;99.90;;;;;;5061546;28;20059;-83
2022/03/26 04:30:40;;;;;;;146.55;82.78;;;5.20;99.90;;;;;;5064137;28;20542;-83
2022/03/26 04:33:06;;;;;;;148.90;80.88;;;5.20;99.90;;;;;;5056109;28;20053;-83
2022/03/26 04:35:31;;;;;;;141.18;80.95;;;5.10;99.90;;;;;;5043598;28;20055;-83
2022/03/26 04:37:57;;;;;;;142.10;79.95;;;5.10;99.90;;;;;;5067073;28;20123;-83
2022/03/26 04:40:23;;;;;;;137.95;79.93;;;5.10;99.90;;;;;;5047212;28;20583;-82
2022/03/26 04:42:49;;;;;;;144.48;80.18;;;5.00;99.90;;;;;;5040689;28;20063;-83
2022/03/26 04:45:15;;;;;;;143.70;80.35;;;5.00;99.90;;;;;;5031698;28;20040;-83
2022/03/26 04:47:41;;;;;;;149.93;82.03;;;4.90;99.90;;;;;;5065636;28;20144;-83
2022/03/26 04:50:08;;;;;;;138.82;79.80;;;4.90;99.90;;;;;;5057910;28;20103;-83
2022/03/26 04:52:34;;;;;;;142.90;79.55;;;4.90;99.90;;;;;;5040153;28;20404;-82
2022/03/26 04:55:00;;;;;;;152.30;79.38;;;4.90;99.90;;;;;;5087032;28;20039;-82
2022/03/26 04:57:25;;;;;;;143.82;80.40;;;4.90;99.90;;;;;;5045192;28;20044;-83
2022/03/26 04:59:52;;;;;;;138.65;78.63;;;4.80;99.90;;;;;;5059541;28;20561;-83
2022/03/26 05:02:18;;;;;;;138.68;78.05;;;4.80;99.90;;;;;;5062117;28;20041;-83
2022/03/26 05:04:43;;;;;;;140.05;78.53;;;4.80;99.90;;;;;;5056316;28;20041;-82
2022/03/26 05:09:53;;;;;;;134.55;78.15;;;4.70;99.90;;;;;;5066916;28;20055;-83
2022/03/26 05:12:19;;;;;;;133.93;76.88;;;4.70;99.90;;;;;;5089019;28;20040;-83
2022/03/26 05:14:45;;;;;;;137.75;77.78;;;4.70;99.90;;;;;;5063930;28;20041;-82
2022/03/26 05:17:11;;;;;;;147.10;80.90;;;4.70;99.90;;;;;;5058712;28;20048;-82
2022/03/26 05:19:36;;;;;;;141.95;79.50;;;4.60;99.90;;;;;;5062601;28;20030;-82
2022/03/26 05:22:04;;;;;;;143.18;81.90;;;4.70;99.90;;;;;;5062842;28;20496;-83
2022/03/26 05:24:29;;;;;;;145.70;79.38;;;4.70;99.90;;;;;;5062973;28;20566;-82
2022/03/26 05:26:55;;;;;;;143.98;80.32;;;4.70;99.90;;;;;;5059840;28;20053;-82
2022/03/26 05:29:20;;;;;;;133.38;78.15;;;4.70;99.90;;;;;;5063215;28;20093;-83
2022/03/26 05:31:47;;;;;;;143.85;80.97;;;4.70;99.90;;;;;;5060596;28;21454;-82
2022/03/26 05:34:13;;;;;;;136.07;77.45;;;4.70;99.90;;;;;;5058916;28;20385;-83
2022/03/26 05:36:39;;;;;;;144.85;80.30;;;4.60;99.90;;;;;;5065857;28;20059;-82
2022/03/26 05:39:05;;;;;;;139.45;78.63;;;6.10;99.90;;;;;;5056794;28;20037;-82
2022/03/26 05:41:32;;;;;;;146.90;81.07;;;4.60;99.90;;;;;;5051008;28;20468;-82
2022/03/26 05:43:59;;;;;;;128.35;75.00;;;4.50;99.90;;;;;;5059802;28;20067;-83
2022/03/26 05:46:25;;;;;;;141.45;79.55;;;4.50;99.90;;;;;;5059922;28;20041;-83
2022/03/26 05:48:50;;;;;;;140.93;77.45;;;3.80;99.90;;;;;;5043970;28;20755;-83
2022/03/26 05:51:16;;;;;;;136.93;76.93;;;4.60;99.90;;;;;;5057319;28;20045;-83
2022/03/26 05:53:41;;;;;;;140.00;78.50;;;4.60;99.90;;;;;;5065956;28;20306;-83
2022/03/26 05:56:07;;;;;;;136.60;76.93;;;4.50;99.90;;;;;;5063551;28;20365;-83
2022/03/26 05:58:34;;;;;;;137.30;77.78;;;4.50;99.90;;;;;;5068385;28;20487;-83
2022/03/26 06:01:00;;;;;;;136.18;78.80;;;4.50;99.90;;;;;;5069357;28;20408;-83
2022/03/26 06:03:26;;;;;;;139.48;78.68;;;4.50;99.90;;;;;;5062597;28;20037;-83
2022/03/26 06:05:51;;;;;;;135.93;77.20;;;4.50;99.90;;;;;;5068360;28;20467;-83
2022/03/26 06:08:17;;;;;;;140.25;77.70;;;4.50;99.90;;;;;;5051176;28;20444;-83
2022/03/26 06:10:43;;;;;;;135.70;78.50;;;4.50;99.90;;;;;;5069791;28;20255;-82
2022/03/26 06:13:09;;;;;;;138.23;78.47;;;4.60;99.90;;;;;;5047892;28;20040;-83
2022/03/26 06:15:35;;;;;;;144.23;78.47;;;4.50;99.90;;;;;;5060303;28;20055;-83
2022/03/26 06:18:04;;;;;;;138.35;78.47;;;4.50;99.90;;;;;;5065916;28;20044;-82
2022/03/26 06:20:30;;;;;;;139.07;78.20;;;4.60;99.90;;;;;;5072481;28;20047;-82
2022/03/26 06:22:56;;;;;;;142.13;80.47;;;4.50;99.90;;;;;;5066656;28;20175;-83
2022/03/26 06:25:22;;;;;;;153.35;84.07;;;4.60;99.90;;;;;;5062440;28;20147;-82
2022/03/26 06:27:48;;;;;;;162.43;87.80;;;4.50;99.90;;;;;;5050255;28;20079;-83
2022/03/26 06:30:15;;;;;;;168.73;86.97;;;4.60;99.90;;;;;;5064067;28;20029;-83
2022/03/26 06:32:40;;;;;;;159.63;87.13;;;4.60;99.90;;;;;;5046143;28;20048;-83
2022/03/26 06:35:06;;;;;;;176.13;91.78;;;4.60;99.90;;;;;;5067412;28;20403;-83
2022/03/26 06:37:32;;;;;;;165.77;87.95;;;4.60;99.90;;;;;;5065239;28;20036;-83
2022/03/26 06:39:58;;;;;;;180.40;93.97;;;4.70;99.90;;;;;;5060901;28;20037;-83
2022/03/26 06:42:25;;;;;;;170.73;88.95;;;4.70;99.90;;;;;;5065473;28;20037;-82
2022/03/26 06:44:52;;;;;;;172.15;87.63;;;4.80;99.90;;;;;;5067429;28;20055;-82
2022/03/26 06:47:17;;;;;;;168.20;90.05;;;4.90;99.90;;;;;;5052656;28;20499;-83
2022/03/26 06:49:43;;;;;;;168.82;89.50;;;4.90;99.90;;;;;;5068017;28;20041;-83
2022/03/26 06:52:09;;;;;;;172.55;88.82;;;5.00;99.90;;;;;;5056325;28;20041;-81
2022/03/26 06:54:34;;;;;;;165.85;89.15;;;5.10;99.90;;;;;;5093317;28;20043;-80
2022/03/26 06:57:00;;;;;;;161.93;85.07;;;5.20;99.90;;;;;;5068446;28;20051;-80
2022/03/26 06:59:25;;;;;;;158.85;85.68;;;6.50;99.90;;;;;;5067575;28;20047;-79
2022/03/26 07:01:52;;;;;;;164.55;87.15;;;5.30;99.90;;;;;;5058550;28;20072;-79
2022/03/26 07:04:17;;;;;;;165.43;87.57;;;5.40;99.90;;;;;;5073304;28;20032;-80
2022/03/26 07:06:43;;;;;;;164.63;87.20;;;5.40;99.90;;;;;;5064079;28;20095;-80
2022/03/26 07:09:09;;;;;;;154.73;81.80;;;5.50;99.90;;;;;;5068517;28;20561;-79
2022/03/26 07:11:35;;;;;;;162.45;84.78;;;5.60;99.90;;;;;;5047332;28;20076;-80
2022/03/26 07:14:01;;;;;;;160.27;85.40;;;5.70;99.90;;;;;;5068347;28;20041;-80
2022/03/26 07:16:26;;;;;;;151.57;82.30;;;5.80;99.90;;;;;;5068810;28;20455;-81
2022/03/26 07:18:52;;;;;;;154.18;80.88;;;5.90;99.90;;;;;;5064542;28;20049;-79
2022/03/26 07:21:18;;;;;;;157.07;81.40;;;7.30;99.90;;;;;;5068408;28;20496;-81
2022/03/26 07:23:43;;;;;;;142.98;78.43;;;6.10;99.90;;;;;;5058366;28;20441;-80
2022/03/26 07:26:09;;;;;;;144.75;78.10;;;6.20;99.90;;;;;;5066248;28;20037;-81
2022/03/26 07:28:34;;;;;;;146.18;79.60;;;6.30;99.90;;;;;;5056847;28;20229;-80
2022/03/26 07:31:00;;;;;;;137.82;77.80;;;6.50;99.90;;;;;;5067367;28;20036;-81
2022/03/26 07:33:26;;;;;;;128.52;71.68;;;6.20;99.90;;;;;;5063832;28;20064;-81
2022/03/26 07:35:52;;;;;;;137.45;73.53;;;6.70;99.90;;;;;;5047568;28;20036;-81
2022/03/26 07:38:18;;;;;;;133.50;71.72;;;6.70;99.90;;;;;;5067948;28;20388;-81
2022/03/26 07:40:43;;;;;;;130.05;70.75;;;6.60;99.90;;;;;;5068425;28;20132;-79
2022/03/26 07:43:09;;;;;;;115.57;67.50;;;7.10;99.90;;;;;;5051251;28;20131;-82
2022/03/26 07:45:35;;;;;;;129.13;69.57;;;7.20;99.90;;;;;;5067937;28;20116;-81
2022/03/26 07:48:01;;;;;;;124.60;69.75;;;8.70;99.90;;;;;;5066476;28;20044;-80
2022/03/26 07:50:27;;;;;;;119.75;67.65;;;7.40;99.90;;;;;;5069500;28;20056;-81
2022/03/26 07:52:53;;;;;;;120.70;68.70;;;7.60;99.90;;;;;;5067498;28;20067;-81
2022/03/26 07:55:19;;;;;;;118.82;66.00;;;7.70;99.90;;;;;;5069599;28;20036;-81
2022/03/26 07:57:45;;;;;;;113.60;66.28;;;8.40;99.90;;;;;;5069103;28;20103;-82
2022/03/26 08:00:11;;;;;;;112.72;64.47;;;10.00;99.90;;;;;;5029486;28;20033;-81
2022/03/26 08:02:37;;;;;;;121.15;66.05;;;8.10;99.90;;;;;;5047078;28;20044;-81
2022/03/26 08:05:03;;;;;;;119.82;65.53;;;8.20;99.90;;;;;;5050598;28;20051;-81
2022/03/26 08:07:29;;;;;;;103.22;61.10;;;8.30;99.90;;;;;;5050688;28;20545;-82
2022/03/26 08:09:54;;;;;;;107.32;60.42;;;8.50;99.90;;;;;;5068557;28;20052;-83
2022/03/26 08:12:20;;;;;;;105.47;59.78;;;8.30;99.90;;;;;;5044561;28;20452;-83
2022/03/26 08:14:46;;;;;;;114.75;61.97;;;10.00;99.90;;;;;;5065580;28;20135;-82
2022/03/26 08:17:12;;;;;;;110.22;61.47;;;8.60;99.90;;;;;;5066273;28;20065;-85
2022/03/26 08:19:37;;;;;;;99.05;58.92;;;10.30;99.90;;;;;;5060339;28;20127;-85
2022/03/26 08:22:04;;;;;;;100.38;56.92;;;8.70;99.90;;;;;;5040805;28;20688;-84
2022/03/26 08:24:29;;;;;;;90.13;52.92;;;10.20;99.90;;;;;;5060278;28;20041;-85
2022/03/26 08:26:55;;;;;;;87.95;51.45;;;10.40;99.90;;;;;;5039231;28;20079;-83
2022/03/26 08:29:21;;;;;;;82.85;48.22;;;9.00;99.90;;;;;;5046772;28;20124;-81
2022/03/26 08:31:46;;;;;;;84.07;47.45;;;9.10;99.90;;;;;;5072133;28;20064;-83
2022/03/26 08:34:12;;;;;;;77.22;49.50;;;10.90;99.90;;;;;;5058442;28;20047;-82
2022/03/26 08:36:38;;;;;;;81.85;49.00;;;8.90;99.90;;;;;;5059935;28;20120;-84
2022/03/26 08:39:04;;;;;;;80.07;48.03;;;8.90;99.90;;;;;;5057781;28;20102;-85
2022/03/26 08:41:30;;;;;;;81.95;47.10;;;8.90;99.90;;;;;;5061738;28;20029;-84
2022/03/26 08:43:56;;;;;;;67.75;41.97;;;9.30;99.90;;;;;;5046161;28;20492;-84
2022/03/26 08:46:22;;;;;;;64.95;40.92;;;9.40;99.90;;;;;;5053294;28;20039;-83
2022/03/26 08:48:49;;;;;;;66.57;39.08;;;9.40;99.90;;;;;;5054065;28;20048;-84
2022/03/26 08:51:15;;;;;;;63.67;40.55;;;9.50;99.90;;;;;;5039193;28;20049;-84
2022/03/26 08:53:40;;;;;;;66.35;39.72;;;9.60;99.90;;;;;;5051268;28;20041;-82
2022/03/26 08:56:07;;;;;;;61.40;39.88;;;11.10;99.90;;;;;;5049008;28;20536;-81
2022/03/26 08:58:33;;;;;;;58.10;39.00;;;9.80;99.90;;;;;;5062078;28;20842;-81
2022/03/26 09:01:00;;;;;;;71.50;40.75;;;9.90;99.90;;;;;;5062312;28;20064;-80
2022/03/26 09:03:25;;;;;;;62.50;39.13;;;10.00;99.90;;;;;;5062309;28;20105;-81
2022/03/26 09:05:52;;;;;;;62.47;41.10;;;10.10;99.90;;;;;;5054601;28;20053;-81
2022/03/26 09:08:18;;;;;;;60.92;38.10;;;10.20;99.90;;;;;;5055882;28;20072;-80
2022/03/26 09:10:44;;;;;;;59.63;38.78;;;10.30;99.90;;;;;;4692072;28;10000141;-86
2022/03/26 09:13:10;;;;;;;58.63;38.55;;;10.30;99.90;;;;;;5043865;28;20048;-84
2022/03/26 09:15:36;;;;;;;63.10;39.08;;;11.30;99.90;;;;;;5057964;28;20423;-83
2022/03/26 09:18:02;;;;;;;56.53;37.15;;;10.60;99.90;;;;;;5062864;28;20043;-84
2022/03/26 09:20:28;;;;;;;57.85;36.63;;;10.70;99.90;;;;;;5065805;28;20036;-85
2022/03/26 09:22:54;;;;;;;60.78;39.67;;;10.70;99.90;;;;;;5043331;28;20064;-83
2022/03/26 09:25:20;;;;;;;56.85;38.85;;;10.90;99.90;;;;;;5054293;28;20037;-83
2022/03/26 09:27:47;;;;;;;56.17;35.85;;;11.10;99.90;;;;;;5060343;28;20128;-83
2022/03/26 09:30:15;;;;;;;55.95;34.40;;;11.30;99.90;;;;;;5059991;28;20044;-80
2022/03/26 09:32:44;;;;;;;52.47;33.15;;;11.30;99.90;;;;;;5015185;28;1329332;-81
2022/03/26 09:35:12;;;;;;;52.85;32.95;;;11.40;99.90;;;;;;5063091;28;20207;-83
2022/03/26 09:37:38;;;;;;;48.95;31.80;;;12.60;99.90;;;;;;5045516;28;20048;-80
2022/03/26 09:40:05;;;;;;;50.88;33.65;;;12.30;99.90;;;;;;5038046;28;20104;-82
2022/03/26 09:42:32;;;;;;;39.25;29.02;;;11.50;99.90;;;;;;5039808;28;20040;-81
2022/03/26 09:44:58;;;;;;;47.60;34.00;;;11.50;99.90;;;;;;5060642;28;20102;-82
2022/03/26 09:47:24;;;;;;;42.85;29.55;;;12.70;99.90;;;;;;5051037;28;20049;-82
2022/03/26 09:49:50;;;;;;;41.30;29.15;;;11.30;99.90;;;;;;5058671;28;20041;-82
2022/03/26 09:52:17;;;;;;;42.60;29.15;;;13.50;99.90;;;;;;5059593;28;20529;-81
2022/03/26 09:54:43;;;;;;;39.78;28.02;;;12.80;99.90;;;;;;5046170;28;20132;-80
2022/03/26 09:57:09;;;;;;;37.97;25.95;;;12.00;99.90;;;;;;5040457;28;20584;-82
2022/03/26 09:59:35;;;;;;;33.40;24.48;;;12.10;99.90;;;;;;5054672;28;20124;-82
2022/03/26 10:02:02;;;;;;;31.58;21.33;;;13.40;99.90;;;;;;5047760;28;20050;-79
2022/03/26 10:04:40;;;;;;;25.45;18.38;;;12.30;99.90;;;;;;5061951;28;20036;-80
2022/03/26 10:07:07;;;;;;;26.45;18.60;;;12.30;99.90;;;;;;5037688;28;20041;-81
2022/03/26 10:09:40;;;;;;;27.88;19.00;;;12.40;99.90;;;;;;5071424;28;20044;-84
2022/03/26 10:12:10;;;;;;;28.30;19.02;;;12.40;99.90;;;;;;5060771;28;20694;-84
2022/03/26 10:14:43;;;;;;;28.92;22.30;;;12.40;99.90;;;;;;5060826;28;20039;-83
2022/03/26 10:17:24;;;;;;;28.98;20.15;;;12.60;99.90;;;;;;5058355;28;20373;-83
2022/03/26 10:19:55;;;;;;;27.55;20.27;;;12.70;99.90;;;;;;5058412;28;20045;-85
2022/03/26 10:22:23;;;;;;;29.52;19.00;;;12.80;99.90;;;;;;5060648;28;20045;-83
2022/03/26 10:24:49;;;;;;;33.35;20.42;;;12.90;99.90;;;;;;5057201;28;20244;-83
2022/03/26 10:27:15;;;;;;;34.28;20.33;;;13.00;99.90;;;;;;5059292;28;20048;-83
2022/03/26 10:29:52;;;;;;;25.02;20.30;;;13.10;99.90;;;;;;5049894;28;20055;-85
2022/03/26 10:32:41;;;;;;;27.27;19.42;;;13.10;99.90;;;;;;5066842;28;20123;-84
2022/03/26 10:35:09;;;;;;;23.38;18.10;;;13.20;99.90;;;;;;5058848;28;20059;-82
2022/03/26 10:37:46;;;;;;;22.00;15.38;;;13.30;99.90;;;;;;5049483;28;20048;-79
2022/03/26 10:40:24;;;;;;;19.48;13.48;;;13.40;99.90;;;;;;5065964;28;20119;-80
2022/03/26 10:42:54;;;;;;;16.95;12.68;;;13.50;99.90;;;;;;5046412;28;20263;-74
2022/03/26 10:45:20;;;;;;;18.05;12.60;;;13.60;99.90;;;;;;5061486;28;20036;-73
2022/03/26 10:47:50;;;;;;;17.55;11.55;;;13.70;99.90;;;;;;5044498;28;20110;-73
2022/03/26 10:50:16;;;;;;;16.40;10.05;;;13.80;99.90;;;;;;5064936;28;20087;-75
2022/03/26 10:52:42;;;;;;;15.75;10.52;;;14.60;99.90;;;;;;5060529;28;20492;-73
2022/03/26 10:55:18;;;;;;;16.20;11.55;;;14.00;99.90;;;;;;5067829;28;20046;-73
2022/03/26 10:57:46;;;;;;;14.13;11.02;;;14.30;99.90;;;;;;5062225;28;20052;-73
2022/03/26 11:00:19;;;;;;;14.30;11.25;;;14.20;99.90;;;;;;5062417;28;20037;-73
2022/03/26 11:02:45;;;;;;;12.98;8.98;;;14.20;99.90;;;;;;5066410;28;20054;-73
2022/03/26 11:05:12;;;;;;;10.82;8.75;;;14.40;99.90;;;;;;5048177;28;20036;-74
2022/03/26 11:07:41;;;;;;;12.48;8.55;;;14.40;99.90;;;;;;5067982;28;20492;-74
2022/03/26 11:10:09;;;;;;;14.52;9.65;;;14.40;99.90;;;;;;5051586;28;20496;-73
2022/03/26 11:12:40;;;;;;;24.48;15.10;;;14.50;99.90;;;;;;5066432;28;20052;-75
2022/03/26 11:15:10;;;;;;;11.43;8.23;;;14.50;99.90;;;;;;5061577;28;20040;-75
2022/03/26 11:18:01;;;;;;;8.98;7.55;;;14.60;99.90;;;;;;5057040;28;20052;-75
2022/03/26 11:20:49;;;;;;;10.05;7.88;;;14.80;99.90;;;;;;5066429;28;20080;-76
2022/03/26 11:23:56;;;;;;;16.23;7.28;;;14.80;99.90;;;;;;5068172;28;20083;-76
2022/03/26 11:26:27;;;;;;;9.23;7.18;;;15.00;99.90;;;;;;5060600;28;20579;-77
2022/03/26 11:29:11;;;;;;;10.32;7.65;;;15.10;99.90;;;;;;5064470;28;20032;-76
2022/03/26 11:31:58;;;;;;;9.88;7.38;;;15.30;99.90;;;;;;5092223;28;20094;-76
2022/03/26 11:34:24;;;;;;;12.27;7.45;;;15.30;99.90;;;;;;5050901;28;20044;-76
2022/03/26 11:36:50;;;;;;;12.45;7.65;;;15.30;99.90;;;;;;5066288;28;20366;-75
2022/03/26 11:39:18;;;;;;;9.88;7.72;;;15.40;99.90;;;;;;5065467;28;20040;-75
2022/03/26 11:41:44;;;;;;;8.82;7.03;;;15.50;99.90;;;;;;5082872;28;20044;-77
2022/03/26 11:44:11;;;;;;;8.27;5.75;;;15.60;99.90;;;;;;5042252;28;20048;-76
2022/03/26 11:52:31;;;;;;;9.85;5.35;;;15.90;99.90;;;;;;5061709;28;20048;-75
2022/03/26 11:55:12;;;;;;;6.88;4.63;;;16.00;99.90;;;;;;5058795;28;20044;-75
2022/03/26 11:57:37;;;;;;;8.70;5.70;;;16.10;99.90;;;;;;5065384;28;20071;-75
2022/03/26 12:00:14;;;;;;;7.75;5.15;;;16.00;99.90;;;;;;5094161;28;20481;-74
2022/03/26 12:02:49;;;;;;;8.20;5.50;;;16.20;99.90;;;;;;5051657;28;20087;-76
2022/03/26 12:08:15;;;;;;;7.07;4.45;;;16.40;99.30;;;;;;5060584;28;20048;-77
2022/03/26 12:10:41;;;;;;;6.45;4.90;;;16.30;98.90;;;;;;5048389;28;20488;-76
2022/03/26 12:13:08;;;;;;;6.65;3.90;;;16.40;98.80;;;;;;5055478;28;20052;-77
2022/03/26 12:15:35;;;;;;;6.75;3.80;;;16.90;98.40;;;;;;5055880;28;20044;-76
2022/03/26 12:18:08;;;;;;;5.47;4.20;;;16.30;98.00;;;;;;5054530;28;20119;-76
2022/03/26 12:20:37;;;;;;;8.63;3.40;;;16.50;97.60;;;;;;5066916;28;20098;-77
2022/03/26 12:23:12;;;;;;;3.53;3.22;;;16.90;97.40;;;;;;5045084;28;20044;-77
2022/03/26 12:25:51;;;;;;;4.38;3.60;;;16.60;97.40;;;;;;5065548;28;20040;-77
2022/03/26 12:28:30;;;;;;;7.60;3.67;;;16.70;96.80;;;;;;5067838;28;20186;-81
2022/03/26 12:30:58;;;;;;;5.35;3.45;;;16.60;96.90;;;;;;5058084;28;20047;-76
2022/03/26 12:33:25;;;;;;;4.70;2.88;;;16.70;97.10;;;;;;5061170;28;20382;-76
2022/03/26 12:35:56;;;;;;;13.85;4.07;;;17.80;96.70;;;;;;5094891;28;20135;-76
2022/03/26 12:38:27;;;;;;;4.68;2.97;;;16.70;96.20;;;;;;5067844;28;20113;-77
2022/03/26 12:41:00;;;;;;;;;;;16.60;96.00;;;;;;5063270;28;20083;-76